createdAt,value
2019-04-03T00:05:02.754Z,15
2019-04-03T00:15:08.550Z,14.9
2019-04-03T00:25:11.984Z,14.6
2019-04-03T00:35:15.569Z,14.7
2019-04-03T00:45:19.172Z,14.5
2019-04-03T00:55:22.805Z,14.4
2019-04-03T01:05:28.039Z,14.3
2019-04-03T01:15:32.429Z,14.4
2019-04-03T01:25:35.990Z,14.3
2019-04-03T01:35:39.472Z,14.3
2019-04-03T01:45:42.920Z,14.2
2019-04-03T01:55:46.358Z,14.1
2019-04-03T02:05:49.783Z,13.9
2019-04-03T02:15:53.240Z,13.9
2019-04-03T02:25:56.867Z,13.7
2019-04-03T02:36:00.314Z,13.6
2019-04-03T02:46:04.172Z,13.5
2019-04-03T02:56:11.457Z,13.4
2019-04-03T03:06:17.459Z,13.3
2019-04-03T03:16:20.988Z,13.3
2019-04-03T03:26:24.643Z,13.2
2019-04-03T03:36:28.448Z,13.1
2019-04-03T03:46:33.732Z,13
2019-04-03T03:56:37.418Z,12.8
2019-04-03T04:06:41.717Z,12.7
2019-04-03T04:16:45.255Z,12.6
2019-04-03T04:26:50.148Z,12.4
2019-04-03T04:36:55.113Z,12.3
2019-04-03T04:46:59.459Z,12.2
2019-04-03T04:57:03.045Z,12.1
2019-04-03T05:07:06.559Z,12.1
2019-04-03T05:17:09.971Z,11.9
2019-04-03T05:27:13.390Z,11.9
2019-04-03T05:37:18.000Z,12.1
2019-04-03T05:47:24.327Z,11.9
2019-04-03T05:57:29.034Z,12
2019-04-03T06:07:33.056Z,11.9
2019-04-03T06:17:36.476Z,12
2019-04-03T06:27:41.553Z,13.3
2019-04-03T06:37:51.138Z,15.4
2019-04-03T06:47:56.922Z,14.8
2019-04-03T06:58:00.886Z,13.4
2019-04-03T07:08:05.757Z,13.1
2019-04-03T07:18:09.740Z,13.3
2019-04-03T07:28:13.160Z,14.3
2019-04-03T07:38:16.602Z,13.7
2019-04-03T07:48:20.238Z,13.7
2019-04-03T07:58:25.303Z,13.6
2019-04-03T08:08:29.229Z,13.7
2019-04-03T08:18:32.653Z,13.7
2019-04-03T08:28:37.084Z,13.7
2019-04-03T08:38:40.855Z,14
2019-04-03T08:48:48.673Z,14.8
2019-04-03T08:58:52.130Z,15.4
2019-04-03T09:08:57.803Z,15.7
2019-04-03T09:19:02.586Z,15.7
2019-04-03T09:29:05.989Z,16.1
2019-04-03T09:39:10.026Z,16.6
2019-04-03T09:49:18.604Z,16.8
2019-04-03T09:59:22.395Z,16.2
2019-04-03T10:09:25.828Z,16.1
2019-04-03T10:19:29.590Z,16
2019-04-03T10:29:33.401Z,15.9
2019-04-03T10:39:39.683Z,16
2019-04-03T10:49:48.329Z,15.8
2019-04-03T10:59:54.401Z,15.9
2019-04-03T11:09:58.943Z,16
2019-04-03T11:20:02.344Z,16.1
2019-04-03T11:30:05.936Z,16.6
2019-04-03T11:40:09.502Z,17.1
2019-04-03T11:50:12.929Z,17.4
2019-04-03T12:00:16.749Z,17.6
2019-04-03T12:10:20.193Z,17.4
2019-04-03T12:20:23.955Z,17.2
2019-04-03T12:30:28.050Z,16.8
2019-04-03T12:40:32.804Z,16.9
2019-04-03T12:50:36.918Z,17.2
2019-04-03T13:00:40.518Z,17.4
2019-04-03T13:10:47.404Z,17.5
2019-04-03T13:20:53.211Z,17.7
2019-04-03T13:30:56.678Z,17.6
2019-04-03T13:41:00.630Z,17.3
2019-04-03T13:51:04.116Z,17.6
2019-04-03T14:01:09.436Z,17.7
2019-04-03T14:11:13.530Z,17.8
2019-04-03T14:21:17.451Z,17.8
2019-04-03T14:31:32.611Z,17.2
2019-04-03T14:41:42.065Z,16.9
2019-04-03T14:51:45.529Z,16.6
2019-04-03T15:01:51.653Z,16.1
2019-04-03T15:11:56.200Z,15.8
2019-04-03T15:22:02.072Z,15.8
2019-04-03T15:32:06.402Z,15.7
2019-04-03T15:42:09.845Z,15.2
2019-04-03T15:52:13.868Z,14.6
2019-04-03T16:02:17.336Z,14.3
2019-04-03T16:12:21.295Z,13.9
2019-04-03T16:22:24.805Z,13.4
2019-04-03T16:32:28.302Z,13.1
2019-04-03T16:42:32.181Z,13.1
2019-04-03T16:52:36.998Z,12.8
2019-04-03T17:02:42.544Z,12.6
2019-04-03T17:12:46.571Z,12.5
2019-04-03T17:22:53.543Z,12
2019-04-03T17:32:57.485Z,11.7
2019-04-03T17:43:00.950Z,11.4
2019-04-03T17:53:06.193Z,11.4
2019-04-03T18:03:11.522Z,11.3
2019-04-03T18:13:15.013Z,11.2
2019-04-03T18:23:19.850Z,10.9
2019-04-03T18:33:25.603Z,10.7
2019-04-03T18:43:29.040Z,10.6
2019-04-03T18:53:32.478Z,10.3
2019-04-03T19:03:36.367Z,10.3
2019-04-03T19:13:40.384Z,10.2
2019-04-03T19:23:49.365Z,9.9
2019-04-03T19:33:57.735Z,9.8
2019-04-03T19:44:01.226Z,9.7
2019-04-03T19:54:04.674Z,9.6
2019-04-03T20:04:08.125Z,9.5
2019-04-03T20:14:12.084Z,9.4
2019-04-03T20:24:15.535Z,9.3
2019-04-03T20:34:18.944Z,9.2
2019-04-03T20:44:22.391Z,9.2
2019-04-03T20:54:25.854Z,9
2019-04-03T21:04:29.314Z,9
2019-04-03T21:14:32.746Z,9
2019-04-03T21:24:36.206Z,8.9
2019-04-03T21:34:39.603Z,8.9
2019-04-03T21:44:46.330Z,8.8
2019-04-03T21:54:49.807Z,8.7
2019-04-03T22:04:53.835Z,8.6
2019-04-03T22:14:57.988Z,8.6
2019-04-03T22:25:01.441Z,8.4
2019-04-03T22:35:04.921Z,8.4
2019-04-03T22:45:08.359Z,8.5
2019-04-03T22:55:12.957Z,8.4
2019-04-03T23:05:18.839Z,8.4
2019-04-03T23:15:22.247Z,8.4
2019-04-03T23:25:25.647Z,8.3
2019-04-03T23:35:29.072Z,8.4
2019-04-03T23:45:32.518Z,8.2
2019-04-03T23:55:36.197Z,8.2
